Terminal Aerodrome Forecast
Issued by NWS Charleston, WV

Current Version | Previous Version | Graphics & Text | Print | Product List | Glossary On
Versions: 1 2 3 4 5 6 7 8 9 10 11 12 13 14 15 16 17 18 19 20 21 22 23 24 25
000
FTUS41 KRLX 041120
TAFEKN
TAF
KEKN 041120Z 0412/0512 00000KT 3SM SHRA BR VCTS OVC025CB
      TEMPO 0412/0413 2SM SHRA BKN010
     FM041400 28004KT P6SM BKN015
     FM041800 30004KT P6SM BKN025
     FM050000 00000KT P6SM SCT030
     FM050200 00000KT 3SM BR SCT035
     FM050700 00000KT 1/2SM FG VV001=

USA.gov is the U.S. government's official web portal to all federal, state and local government web resources and services.